createdAt,value
2022-10-05T00:00:03.827Z,35
2022-10-05T00:01:08.335Z,35
2022-10-05T00:02:17.747Z,41
2022-10-05T00:03:22.470Z,33
2022-10-05T00:04:26.611Z,33
2022-10-05T00:05:30.992Z,38
2022-10-05T00:06:35.339Z,35
2022-10-05T00:07:39.791Z,38
2022-10-05T00:08:44.115Z,35
2022-10-05T00:09:48.415Z,40
2022-10-05T00:10:55.651Z,38
2022-10-05T00:12:00.176Z,28
2022-10-05T00:13:12.588Z,37
2022-10-05T00:14:16.971Z,38
2022-10-05T00:15:25.931Z,39
2022-10-05T00:16:30.326Z,36
2022-10-05T00:17:35.032Z,28
2022-10-05T00:18:39.456Z,29
2022-10-05T00:19:44.082Z,42
2022-10-05T00:20:48.456Z,33
2022-10-05T00:21:52.770Z,31
2022-10-05T00:23:00.099Z,33
2022-10-05T00:24:04.374Z,32
2022-10-05T00:25:09.119Z,29
2022-10-05T00:27:20.974Z,28
2022-10-05T00:28:25.253Z,36
2022-10-05T00:29:29.514Z,37
2022-10-05T00:30:33.767Z,30
2022-10-05T00:31:38.101Z,27
2022-10-05T00:32:42.444Z,30
2022-10-05T00:33:46.803Z,33
2022-10-05T00:34:51.339Z,29
2022-10-05T00:35:55.719Z,29
2022-10-05T00:37:01.556Z,27
2022-10-05T00:38:05.949Z,37
2022-10-05T00:39:10.294Z,32
2022-10-05T00:40:14.403Z,32
2022-10-05T00:41:23.834Z,37
2022-10-05T00:42:31.230Z,37
2022-10-05T00:43:40.599Z,48
2022-10-05T00:44:45.119Z,42
2022-10-05T00:45:55.431Z,48
2022-10-05T00:47:07.707Z,46
2022-10-05T00:48:22.231Z,50
2022-10-05T00:49:31.734Z,44
2022-10-05T00:50:43.851Z,44
2022-10-05T00:51:58.418Z,49
2022-10-05T00:53:08.271Z,49
2022-10-05T00:54:15.927Z,48
2022-10-05T00:55:26.846Z,53
2022-10-05T00:56:36.294Z,50
2022-10-05T00:57:50.718Z,50
2022-10-05T00:59:00.951Z,55
2022-10-05T01:00:10.704Z,50
2022-10-05T01:01:15.079Z,61
2022-10-05T01:02:26.945Z,53
2022-10-05T01:03:31.871Z,55
2022-10-05T01:04:41.276Z,61
2022-10-05T01:05:55.698Z,60
2022-10-05T01:07:05.191Z,56
2022-10-05T01:08:15.091Z,57
2022-10-05T01:10:43.251Z,54
2022-10-05T01:11:55.371Z,63
2022-10-05T01:12:59.694Z,52
2022-10-05T01:14:14.042Z,55
2022-10-05T01:15:28.570Z,60
2022-10-05T01:16:38.068Z,60
2022-10-05T01:17:47.448Z,64
2022-10-05T01:18:59.892Z,61
2022-10-05T01:20:12.445Z,61
2022-10-05T01:21:16.797Z,67
2022-10-05T01:22:21.086Z,61
2022-10-05T01:23:30.526Z,65
2022-10-05T01:24:41.803Z,58
2022-10-05T01:25:56.192Z,56
2022-10-05T01:27:10.545Z,56
2022-10-05T01:28:19.929Z,48
2022-10-05T01:29:27.074Z,65
2022-10-05T01:30:31.632Z,59
2022-10-05T01:31:38.754Z,55
2022-10-05T01:32:46.071Z,54
2022-10-05T01:33:55.610Z,62
2022-10-05T01:35:05.014Z,54
2022-10-05T01:36:12.204Z,54
2022-10-05T01:37:21.941Z,57
2022-10-05T01:38:31.379Z,64
2022-10-05T01:39:45.671Z,52
2022-10-05T01:40:54.935Z,53
2022-10-05T01:41:59.130Z,49
2022-10-05T01:43:08.378Z,50
2022-10-05T01:44:12.635Z,56
2022-10-05T01:45:16.967Z,48
2022-10-05T01:46:29.750Z,59
2022-10-05T01:47:39.040Z,55
2022-10-05T01:48:48.994Z,48
2022-10-05T01:50:03.580Z,55
2022-10-05T01:51:15.593Z,55
2022-10-05T01:52:19.772Z,53
2022-10-05T01:53:24.281Z,62
2022-10-05T01:54:38.736Z,55
2022-10-05T01:55:48.224Z,57
2022-10-05T01:57:00.196Z,62
2022-10-05T01:58:14.712Z,58
2022-10-05T01:59:24.035Z,62
2022-10-05T02:00:38.492Z,63
2022-10-05T02:01:45.208Z,57
2022-10-05T02:02:52.739Z,56
2022-10-05T02:04:02.031Z,64
2022-10-05T02:05:16.483Z,59
2022-10-05T02:06:20.832Z,56
2022-10-05T02:07:25.145Z,60
2022-10-05T02:08:37.663Z,53
2022-10-05T02:09:42.072Z,58
2022-10-05T02:10:46.294Z,53
2022-10-05T02:11:50.732Z,57
2022-10-05T02:13:03.181Z,60
2022-10-05T02:14:12.573Z,53
2022-10-05T02:15:16.871Z,52
2022-10-05T02:16:21.191Z,46
2022-10-05T02:17:34.491Z,45
2022-10-05T02:18:46.812Z,45
2022-10-05T02:19:58.776Z,47
2022-10-05T02:21:06.507Z,45
2022-10-05T02:22:10.656Z,43
2022-10-05T02:23:19.947Z,46
2022-10-05T02:24:24.328Z,46
2022-10-05T02:25:31.864Z,47
2022-10-05T02:26:36.311Z,41
2022-10-05T02:27:40.595Z,38
2022-10-05T02:28:44.951Z,46
2022-10-05T02:29:54.014Z,40
2022-10-05T02:30:58.262Z,43
2022-10-05T02:32:10.844Z,41
2022-10-05T02:33:15.193Z,46
2022-10-05T02:34:24.495Z,44
2022-10-05T02:35:29.080Z,41
2022-10-05T02:36:33.409Z,36
2022-10-05T02:37:37.807Z,35
2022-10-05T02:38:49.548Z,45
2022-10-05T02:39:58.681Z,45
2022-10-05T02:41:13.219Z,37
2022-10-05T02:42:32.315Z,32
2022-10-05T02:43:44.360Z,38
2022-10-05T02:44:54.453Z,27
2022-10-05T02:46:06.740Z,34
2022-10-05T02:47:21.276Z,32
2022-10-05T02:48:35.719Z,31
2022-10-05T02:49:50.379Z,27
2022-10-05T02:50:54.730Z,33
2022-10-05T02:52:09.117Z,37
2022-10-05T02:54:27.427Z,27
2022-10-05T02:55:39.896Z,25
2022-10-05T02:56:49.671Z,34
2022-10-05T02:58:01.183Z,33
2022-10-05T02:59:15.596Z,38
2022-10-05T03:00:24.836Z,26
2022-10-05T03:01:29.249Z,34
2022-10-05T03:02:38.688Z,30
2022-10-05T03:03:45.811Z,28
2022-10-05T03:04:55.325Z,30
2022-10-05T03:06:09.808Z,29
2022-10-05T03:07:14.122Z,29
2022-10-05T03:08:24.579Z,29
2022-10-05T03:09:33.934Z,39
2022-10-05T03:10:38.743Z,38
2022-10-05T03:11:48.064Z,31
2022-10-05T03:12:52.563Z,36
2022-10-05T03:14:02.019Z,29
2022-10-05T03:15:14.101Z,28
2022-10-05T03:16:21.314Z,28
2022-10-05T03:17:37.127Z,30
2022-10-05T03:18:41.447Z,31
2022-10-05T03:19:53.667Z,35
2022-10-05T03:21:04.495Z,31
2022-10-05T03:22:21.807Z,25
2022-10-05T03:23:34.219Z,30
2022-10-05T03:24:53.607Z,25
2022-10-05T03:26:05.666Z,35
2022-10-05T03:27:20.454Z,31
2022-10-05T03:28:29.975Z,35
2022-10-05T03:29:37.028Z,34
2022-10-05T03:30:46.564Z,31
2022-10-05T03:32:01.466Z,32
2022-10-05T03:33:16.026Z,31
2022-10-05T03:34:28.430Z,26
2022-10-05T03:35:42.902Z,33
2022-10-05T03:36:57.294Z,33
2022-10-05T03:38:01.644Z,35
2022-10-05T03:39:16.065Z,30
2022-10-05T03:40:26.222Z,31
2022-10-05T03:42:44.396Z,25
2022-10-05T03:43:56.917Z,25
2022-10-05T03:45:08.844Z,32
2022-10-05T03:46:18.212Z,34
2022-10-05T03:47:29.087Z,35
2022-10-05T03:48:41.407Z,30
2022-10-05T03:49:48.638Z,40
2022-10-05T03:51:02.986Z,36
2022-10-05T03:52:07.160Z,35
2022-10-05T03:53:11.571Z,35
2022-10-05T03:54:20.866Z,29
2022-10-05T03:55:33.199Z,27
2022-10-05T03:56:40.235Z,37
2022-10-05T03:57:49.912Z,41
2022-10-05T03:58:54.230Z,31
2022-10-05T03:59:58.483Z,40
2022-10-05T04:01:11.160Z,36
2022-10-05T04:02:15.704Z,32
2022-10-05T04:03:27.878Z,38
2022-10-05T04:04:38.459Z,36
2022-10-05T04:05:50.754Z,41
2022-10-05T04:06:55.083Z,32
2022-10-05T04:07:59.251Z,30
2022-10-05T04:09:03.585Z,43
2022-10-05T04:10:15.851Z,42
2022-10-05T04:11:20.059Z,40
2022-10-05T04:12:24.702Z,43
2022-10-05T04:13:35.035Z,43
2022-10-05T04:14:39.359Z,55
2022-10-05T04:15:51.191Z,44
2022-10-05T04:17:01.055Z,49
2022-10-05T04:18:10.483Z,49
2022-10-05T04:19:22.634Z,48
2022-10-05T04:20:26.962Z,53
2022-10-05T04:21:41.251Z,51
2022-10-05T04:22:50.711Z,49
2022-10-05T04:23:55.043Z,49
2022-10-05T04:25:04.374Z,47
2022-10-05T04:26:16.426Z,50
2022-10-05T04:27:20.775Z,50
2022-10-05T04:28:29.576Z,55
2022-10-05T04:29:34.790Z,40
2022-10-05T04:30:40.026Z,55
2022-10-05T04:31:44.325Z,51
2022-10-05T04:32:56.552Z,59
2022-10-05T04:34:00.792Z,48
2022-10-05T04:35:05.506Z,51
2022-10-05T04:36:14.869Z,54
2022-10-05T04:37:26.882Z,60
2022-10-05T04:38:39.008Z,46
2022-10-05T04:39:53.340Z,53
2022-10-05T04:41:02.671Z,45
2022-10-05T04:42:14.995Z,51
2022-10-05T04:43:24.518Z,54
2022-10-05T04:44:38.783Z,58
2022-10-05T04:45:50.711Z,60
2022-10-05T04:47:00.392Z,61
2022-10-05T04:48:10.635Z,59
2022-10-05T04:49:19.975Z,66
2022-10-05T04:50:29.384Z,67
2022-10-05T04:51:41.586Z,63
2022-10-05T04:52:56.069Z,70
2022-10-05T04:54:05.474Z,66
2022-10-05T04:55:14.951Z,69
2022-10-05T04:56:24.130Z,62
2022-10-05T04:58:46.950Z,78
2022-10-05T05:00:02.127Z,67
2022-10-05T05:01:14.469Z,72
2022-10-05T05:02:28.859Z,64
2022-10-05T05:03:43.774Z,63
2022-10-05T05:04:55.449Z,74
2022-10-05T05:06:17.659Z,66
2022-10-05T05:07:23.442Z,68
2022-10-05T05:08:32.967Z,78
2022-10-05T05:09:47.418Z,72
2022-10-05T05:10:56.986Z,72
2022-10-05T05:12:10.743Z,80
2022-10-05T05:13:25.241Z,80
2022-10-05T05:14:37.491Z,68
2022-10-05T05:15:51.850Z,74
2022-10-05T05:18:50.466Z,81
2022-10-05T05:20:04.821Z,74
2022-10-05T05:21:17.288Z,81
2022-10-05T05:22:29.440Z,75
2022-10-05T05:23:36.579Z,76
2022-10-05T05:24:48.987Z,85
2022-10-05T05:26:01.001Z,77
2022-10-05T05:27:15.603Z,82
2022-10-05T05:28:25.164Z,80
2022-10-05T05:29:34.478Z,80
2022-10-05T05:30:43.258Z,87
2022-10-05T05:31:54.064Z,78
2022-10-05T05:33:07.207Z,74
2022-10-05T05:34:19.556Z,82
2022-10-05T05:35:33.947Z,74
2022-10-05T05:36:38.292Z,73
2022-10-05T05:37:52.865Z,80
2022-10-05T05:39:07.386Z,86
2022-10-05T05:40:22.182Z,84
2022-10-05T05:41:26.562Z,78
2022-10-05T05:42:39.019Z,84
2022-10-05T05:43:52.979Z,88
2022-10-05T05:45:02.544Z,86
2022-10-05T05:46:18.612Z,87
2022-10-05T05:47:27.971Z,79
2022-10-05T05:48:35.490Z,81
2022-10-05T05:49:42.510Z,86
2022-10-05T05:50:52.595Z,96
2022-10-05T05:52:09.070Z,90
2022-10-05T05:53:16.751Z,92
2022-10-05T05:54:25.940Z,89
2022-10-05T05:55:35.247Z,90
2022-10-05T05:56:39.475Z,97
2022-10-05T05:57:43.786Z,93
2022-10-05T05:58:56.724Z,92
2022-10-05T06:00:10.075Z,98
2022-10-05T06:01:32.483Z,90
2022-10-05T06:03:29.744Z,99
2022-10-05T06:04:39.719Z,94
2022-10-05T06:05:54.686Z,98
2022-10-05T06:06:59.539Z,103
2022-10-05T06:09:07.142Z,111
2022-10-05T06:10:21.412Z,97
2022-10-05T06:11:25.750Z,104
2022-10-05T06:12:34.546Z,107
2022-10-05T06:13:38.995Z,109
2022-10-05T06:14:43.538Z,108
2022-10-05T06:15:50.311Z,110
2022-10-05T06:17:00.539Z,107
2022-10-05T06:18:12.818Z,104
2022-10-05T06:19:17.474Z,108
2022-10-05T06:20:21.578Z,109
2022-10-05T06:21:31.634Z,103
2022-10-05T06:22:43.707Z,106
2022-10-05T06:23:50.757Z,101
2022-10-05T06:25:02.756Z,102
2022-10-05T06:26:17.562Z,103
2022-10-05T06:27:31.987Z,110
2022-10-05T06:28:36.096Z,97
2022-10-05T06:29:40.212Z,100
2022-10-05T06:30:54.570Z,100
2022-10-05T06:32:01.724Z,103
2022-10-05T06:33:05.914Z,103
2022-10-05T06:34:12.735Z,102
2022-10-05T06:35:27.176Z,99
2022-10-05T06:36:39.083Z,83
2022-10-05T06:37:48.338Z,94
2022-10-05T06:39:00.551Z,92
2022-10-05T06:40:15.168Z,87
2022-10-05T06:41:32.087Z,89
2022-10-05T06:42:45.127Z,83
2022-10-05T06:43:59.190Z,88
2022-10-05T06:45:06.210Z,75
2022-10-05T06:46:18.688Z,71
2022-10-05T06:47:25.826Z,74
2022-10-05T06:48:33.038Z,74
2022-10-05T06:49:47.487Z,68
2022-10-05T06:50:51.867Z,77
2022-10-05T06:52:06.206Z,74
2022-10-05T06:53:13.466Z,71
2022-10-05T06:54:25.647Z,70
2022-10-05T06:55:40.109Z,69
2022-10-05T06:56:54.444Z,69
2022-10-05T06:58:10.622Z,60
2022-10-05T06:59:22.710Z,62
2022-10-05T07:00:31.945Z,63
2022-10-05T07:01:38.644Z,63
2022-10-05T07:02:49.075Z,59
2022-10-05T07:03:58.306Z,57
2022-10-05T07:05:12.611Z,60
2022-10-05T07:06:26.963Z,47
2022-10-05T07:07:39.478Z,49
2022-10-05T07:08:43.591Z,47
2022-10-05T07:09:47.899Z,42
2022-10-05T07:11:03.433Z,38
2022-10-05T07:12:12.206Z,37
2022-10-05T07:13:27.366Z,31
2022-10-05T07:14:39.630Z,29
2022-10-05T07:15:54.031Z,25
2022-10-05T07:17:05.511Z,46
2022-10-05T07:18:22.225Z,33
2022-10-05T07:19:29.242Z,37
2022-10-05T07:20:43.576Z,29
2022-10-05T07:21:50.692Z,25
2022-10-05T07:22:54.894Z,25
2022-10-05T07:24:02.083Z,28
2022-10-05T07:25:15.171Z,29
2022-10-05T07:26:22.530Z,25
2022-10-05T07:27:31.948Z,30
2022-10-05T07:28:36.227Z,34
2022-10-05T07:29:45.726Z,30
2022-10-05T07:31:00.679Z,29
2022-10-05T07:32:09.718Z,32
2022-10-05T07:33:24.035Z,26
2022-10-05T07:34:35.334Z,27
2022-10-05T07:35:48.970Z,26
2022-10-05T07:37:04.030Z,30
2022-10-05T07:38:18.958Z,29
2022-10-05T07:39:55.691Z,31
2022-10-05T07:40:46.902Z,32
2022-10-05T07:41:56.278Z,27
2022-10-05T07:43:06.363Z,25
2022-10-05T07:44:14.934Z,30
2022-10-05T07:45:23.407Z,36
2022-10-05T07:46:42.366Z,34
2022-10-05T07:47:56.930Z,25
2022-10-05T07:50:10.591Z,25
2022-10-05T07:51:17.646Z,33
2022-10-05T07:52:33.762Z,27
2022-10-05T07:54:43.354Z,39
2022-10-05T07:55:57.666Z,33
2022-10-05T07:57:01.993Z,29
2022-10-05T07:58:19.101Z,25
2022-10-05T07:59:29.344Z,28
2022-10-05T08:00:41.702Z,26
2022-10-05T08:01:51.066Z,38
2022-10-05T08:02:55.224Z,32
2022-10-05T08:04:02.488Z,25
2022-10-05T08:05:16.938Z,27
2022-10-05T08:06:26.902Z,29
2022-10-05T08:07:39.223Z,28
2022-10-05T08:08:43.342Z,30
2022-10-05T08:09:55.417Z,28
2022-10-05T08:11:12.406Z,25
2022-10-05T08:12:26.851Z,35
2022-10-05T08:13:45.982Z,28
2022-10-05T08:14:55.306Z,25
2022-10-05T08:16:09.204Z,44
2022-10-05T08:17:21.652Z,33
2022-10-05T08:18:22.998Z,41
2022-10-05T08:19:35.482Z,39
2022-10-05T08:20:40.342Z,39
2022-10-05T08:21:50.898Z,29
2022-10-05T08:23:00.658Z,29
2022-10-05T08:24:07.542Z,36
2022-10-05T08:25:21.390Z,35
2022-10-05T08:26:25.658Z,32
2022-10-05T08:27:47.060Z,35
2022-10-05T08:28:57.426Z,25
2022-10-05T08:30:01.661Z,34
2022-10-05T08:31:06.183Z,35
2022-10-05T08:32:13.045Z,27
2022-10-05T08:33:23.587Z,33
2022-10-05T08:34:27.822Z,36
2022-10-05T08:35:42.101Z,29
2022-10-05T08:36:50.334Z,25
2022-10-05T08:37:56.950Z,25
2022-10-05T08:39:04.058Z,30
2022-10-05T08:40:08.326Z,29
2022-10-05T08:41:17.650Z,36
2022-10-05T08:42:34.781Z,30
2022-10-05T08:43:49.436Z,36
2022-10-05T08:45:03.749Z,35
2022-10-05T08:47:19.726Z,30
2022-10-05T08:48:29.314Z,27
2022-10-05T08:49:43.850Z,41
2022-10-05T08:51:00.265Z,44
2022-10-05T08:52:14.750Z,33
2022-10-05T08:53:25.095Z,33
2022-10-05T08:54:39.494Z,34
2022-10-05T08:55:53.971Z,35
2022-10-05T08:57:08.506Z,30
2022-10-05T08:58:23.047Z,34
2022-10-05T08:59:37.533Z,27
2022-10-05T09:00:52.199Z,37
2022-10-05T09:02:01.777Z,29
2022-10-05T09:03:13.861Z,33
2022-10-05T09:04:20.926Z,27
2022-10-05T09:05:32.885Z,29
2022-10-05T09:06:42.230Z,34
2022-10-05T09:07:46.501Z,29
2022-10-05T09:08:59.966Z,29
2022-10-05T09:10:14.657Z,33
2022-10-05T09:11:29.059Z,25
2022-10-05T09:12:43.396Z,34
2022-10-05T09:13:52.558Z,30
2022-10-05T09:15:24.662Z,26
2022-10-05T09:16:14.308Z,25
2022-10-05T09:17:29.978Z,28
2022-10-05T09:18:39.782Z,41
2022-10-05T09:19:49.126Z,35
2022-10-05T09:20:53.289Z,32
2022-10-05T09:22:00.122Z,25
2022-10-05T09:23:15.842Z,35
2022-10-05T09:24:25.065Z,33
2022-10-05T09:25:29.565Z,29
2022-10-05T09:26:38.917Z,25
2022-10-05T09:27:57.681Z,25
2022-10-05T09:29:09.878Z,31
2022-10-05T09:30:19.238Z,27
2022-10-05T09:31:31.061Z,29
2022-10-05T09:32:45.325Z,34
2022-10-05T09:33:54.705Z,38
2022-10-05T09:35:04.321Z,37
2022-10-05T09:36:18.721Z,27
2022-10-05T09:37:28.215Z,35
2022-10-05T09:38:37.517Z,32
2022-10-05T09:39:49.862Z,32
2022-10-05T09:41:04.538Z,35
2022-10-05T09:42:13.831Z,32
2022-10-05T09:43:25.409Z,26
2022-10-05T09:44:40.090Z,31
2022-10-05T09:45:54.506Z,34
2022-10-05T09:47:08.773Z,25
2022-10-05T09:48:18.090Z,37
2022-10-05T09:49:32.602Z,36
2022-10-05T09:50:47.006Z,29
2022-10-05T09:51:59.257Z,34
2022-10-05T09:53:06.203Z,34
2022-10-05T09:54:15.438Z,34
2022-10-05T09:55:30.010Z,29
2022-10-05T09:56:37.005Z,33
2022-10-05T09:57:50.757Z,31
2022-10-05T09:59:03.449Z,33
2022-10-05T10:00:15.504Z,29
2022-10-05T10:01:35.226Z,27
2022-10-05T10:02:37.119Z,30
2022-10-05T10:03:55.337Z,31
2022-10-05T10:05:07.445Z,30
2022-10-05T10:06:19.703Z,37
2022-10-05T10:07:34.024Z,36
2022-10-05T10:08:46.450Z,25
2022-10-05T10:09:59.297Z,38
2022-10-05T10:11:13.613Z,30
2022-10-05T10:12:25.633Z,38
2022-10-05T10:13:36.150Z,29
2022-10-05T10:14:50.454Z,34
2022-10-05T10:16:04.959Z,39
2022-10-05T10:17:19.257Z,26
2022-10-05T10:18:31.274Z,31
2022-10-05T10:19:45.702Z,25
2022-10-05T10:20:59.445Z,27
2022-10-05T10:22:08.999Z,30
2022-10-05T10:23:21.106Z,29
2022-10-05T10:24:33.494Z,26
2022-10-05T10:25:48.145Z,32
2022-10-05T10:26:57.457Z,34
2022-10-05T10:28:11.847Z,45
2022-10-05T10:29:21.352Z,35
2022-10-05T10:30:27.393Z,27
2022-10-05T10:31:40.150Z,25
2022-10-05T10:32:54.802Z,32
2022-10-05T10:34:09.186Z,27
2022-10-05T10:35:21.303Z,28
2022-10-05T10:36:33.560Z,31
2022-10-05T10:37:45.409Z,38
2022-10-05T10:39:02.870Z,32
2022-10-05T10:40:19.778Z,32
2022-10-05T10:41:34.141Z,31
2022-10-05T10:42:48.474Z,36
2022-10-05T10:44:01.718Z,36
2022-10-05T10:45:13.810Z,42
2022-10-05T10:46:21.582Z,31
2022-10-05T10:47:36.025Z,33
2022-10-05T10:48:50.457Z,27
2022-10-05T10:50:00.501Z,32
2022-10-05T10:51:12.638Z,38
2022-10-05T10:52:25.441Z,25
2022-10-05T10:53:34.818Z,34
2022-10-05T10:54:44.342Z,34
2022-10-05T10:55:58.816Z,39
2022-10-05T10:57:14.013Z,42
2022-10-05T10:59:34.534Z,33
2022-10-05T11:00:43.975Z,28
2022-10-05T11:01:51.898Z,27
2022-10-05T11:03:03.603Z,29
2022-10-05T11:04:13.187Z,31
2022-10-05T11:05:27.482Z,25
2022-10-05T11:06:41.822Z,33
2022-10-05T11:07:56.258Z,44
2022-10-05T11:09:05.490Z,40
2022-10-05T11:10:09.685Z,39
2022-10-05T11:11:25.045Z,27
2022-10-05T11:12:39.601Z,32
2022-10-05T11:13:48.965Z,38
2022-10-05T11:15:03.618Z,27
2022-10-05T11:16:14.580Z,25
2022-10-05T11:17:20.194Z,29
2022-10-05T11:18:35.857Z,34
2022-10-05T11:20:03.434Z,34
2022-10-05T11:21:00.655Z,35
2022-10-05T11:22:16.558Z,25
2022-10-05T11:24:40.150Z,25
2022-10-05T11:25:56.269Z,29
2022-10-05T11:27:10.921Z,29
2022-10-05T11:28:23.303Z,26
2022-10-05T11:29:36.533Z,31
2022-10-05T11:30:47.437Z,32
2022-10-05T11:32:00.982Z,31
2022-10-05T11:33:16.161Z,29
2022-10-05T11:34:25.437Z,31
2022-10-05T11:35:39.926Z,31
2022-10-05T11:36:52.746Z,31
2022-10-05T11:38:05.665Z,35
2022-10-05T11:39:20.065Z,26
2022-10-05T11:40:32.098Z,36
2022-10-05T11:41:44.162Z,39
2022-10-05T11:42:58.710Z,41
2022-10-05T11:44:08.610Z,31
2022-10-05T11:45:16.715Z,33
2022-10-05T11:46:26.747Z,25
2022-10-05T11:47:36.713Z,37
2022-10-05T11:48:45.993Z,29
2022-10-05T11:50:00.404Z,26
2022-10-05T11:51:12.690Z,28
2022-10-05T11:52:25.161Z,36
2022-10-05T11:53:39.653Z,30
2022-10-05T11:55:06.229Z,31
2022-10-05T11:55:55.846Z,31
2022-10-05T11:57:10.154Z,29
2022-10-05T11:58:22.424Z,30
2022-10-05T11:59:29.756Z,37
2022-10-05T12:00:33.978Z,33
2022-10-05T12:01:41.209Z,37
2022-10-05T12:03:57.132Z,30
2022-10-05T12:05:11.332Z,27
2022-10-05T12:06:20.674Z,30
2022-10-05T12:07:30.004Z,28
2022-10-05T12:08:39.279Z,29
2022-10-05T12:09:54.441Z,33
2022-10-05T12:11:13.984Z,29
2022-10-05T12:12:29.100Z,40
2022-10-05T12:13:41.465Z,27
2022-10-05T12:14:51.241Z,31
2022-10-05T12:16:01.533Z,28
2022-10-05T12:17:13.527Z,33
2022-10-05T12:18:23.313Z,32
2022-10-05T12:20:35.989Z,28
2022-10-05T12:21:40.484Z,31
2022-10-05T12:22:50.344Z,31
2022-10-05T12:23:54.654Z,29
2022-10-05T12:25:06.558Z,41
2022-10-05T12:26:15.753Z,28
2022-10-05T12:27:25.240Z,32
2022-10-05T12:28:29.999Z,28
2022-10-05T12:29:36.073Z,31
2022-10-05T12:31:51.846Z,26
2022-10-05T12:33:06.333Z,46
2022-10-05T12:34:14.173Z,37
2022-10-05T12:35:43.734Z,25
2022-10-05T12:36:59.515Z,31
2022-10-05T12:37:48.832Z,31
2022-10-05T12:38:58.053Z,32
2022-10-05T12:40:10.065Z,38
2022-10-05T12:41:19.801Z,37
2022-10-05T12:42:29.081Z,34
2022-10-05T12:43:36.281Z,34
2022-10-05T12:44:51.788Z,32
2022-10-05T12:46:01.386Z,25
2022-10-05T12:47:15.961Z,32
2022-10-05T12:48:23.033Z,25
2022-10-05T12:49:37.454Z,30
2022-10-05T12:50:48.057Z,32
2022-10-05T12:51:57.299Z,37
2022-10-05T12:53:06.678Z,37
2022-10-05T12:54:16.088Z,30
2022-10-05T12:55:25.489Z,29
2022-10-05T12:56:35.001Z,28
2022-10-05T12:57:44.257Z,28
2022-10-05T12:58:54.945Z,29
2022-10-05T13:00:04.249Z,36
2022-10-05T13:01:14.633Z,36
2022-10-05T13:02:29.041Z,31
2022-10-05T13:03:38.593Z,34
2022-10-05T13:04:51.720Z,34
2022-10-05T13:06:03.813Z,38
2022-10-05T13:07:10.797Z,44
2022-10-05T13:08:23.486Z,42
2022-10-05T13:09:36.258Z,34
2022-10-05T13:10:48.830Z,34
2022-10-05T13:11:58.156Z,27
2022-10-05T13:13:05.020Z,32
2022-10-05T13:14:19.496Z,38
2022-10-05T13:15:34.113Z,25
2022-10-05T13:16:38.761Z,29
2022-10-05T13:17:51.028Z,39
2022-10-05T13:19:00.516Z,28
2022-10-05T13:20:10.327Z,38
2022-10-05T13:22:29.563Z,36
2022-10-05T13:23:41.915Z,30
2022-10-05T13:24:56.499Z,31
2022-10-05T13:26:03.627Z,33
2022-10-05T13:27:08.025Z,36
2022-10-05T13:28:18.204Z,41
2022-10-05T13:29:25.709Z,42
2022-10-05T13:30:30.360Z,36
2022-10-05T13:31:34.613Z,30
2022-10-05T13:32:41.683Z,42
2022-10-05T13:33:45.880Z,25
2022-10-05T13:35:00.756Z,31
2022-10-05T13:36:15.467Z,35
2022-10-05T13:37:28.310Z,31
2022-10-05T13:38:42.572Z,35
2022-10-05T13:39:52.350Z,36
2022-10-05T13:40:59.280Z,29
2022-10-05T13:42:03.852Z,34
2022-10-05T13:43:16.119Z,41
2022-10-05T13:44:23.064Z,42
2022-10-05T13:45:32.846Z,40
2022-10-05T13:46:47.484Z,49
2022-10-05T13:48:01.859Z,38
2022-10-05T13:49:16.572Z,37
2022-10-05T13:50:27.462Z,35
2022-10-05T13:51:30.359Z,44
2022-10-05T13:52:37.122Z,42
2022-10-05T13:53:47.289Z,45
2022-10-05T13:55:02.631Z,47
2022-10-05T13:56:10.016Z,43
2022-10-05T13:57:22.151Z,45
2022-10-05T13:58:26.415Z,48
2022-10-05T13:59:36.599Z,40
2022-10-05T14:00:46.104Z,42
2022-10-05T14:01:55.709Z,43
2022-10-05T14:03:02.949Z,39
2022-10-05T14:04:07.165Z,42
2022-10-05T14:05:17.259Z,49
2022-10-05T14:06:21.579Z,49
2022-10-05T14:07:25.840Z,46
2022-10-05T14:08:33.179Z,50
2022-10-05T14:09:37.339Z,50
2022-10-05T14:10:41.849Z,57
2022-10-05T14:11:45.995Z,55
2022-10-05T14:12:50.464Z,55
2022-10-05T14:13:54.784Z,52
2022-10-05T14:15:04.131Z,49
2022-10-05T14:16:14.544Z,46
2022-10-05T14:17:26.900Z,68
2022-10-05T14:18:32.172Z,61
2022-10-05T14:19:36.675Z,61
2022-10-05T14:20:46.597Z,60
2022-10-05T14:22:02.912Z,61
2022-10-05T14:23:12.291Z,65
2022-10-05T14:24:25.792Z,73
2022-10-05T14:25:21.887Z,68
2022-10-05T14:26:26.486Z,68
2022-10-05T14:27:33.567Z,76
2022-10-05T14:28:45.693Z,78
2022-10-05T14:29:55.319Z,79
2022-10-05T14:30:59.682Z,78
2022-10-05T14:32:06.828Z,76
2022-10-05T14:33:16.122Z,81
2022-10-05T14:34:20.681Z,71
2022-10-05T14:35:33.188Z,78
2022-10-05T14:36:47.928Z,75
2022-10-05T14:37:52.495Z,73
2022-10-05T14:39:02.169Z,78
2022-10-05T14:40:06.472Z,80
2022-10-05T14:41:21.052Z,80
2022-10-05T14:42:28.601Z,79
2022-10-05T14:43:33.027Z,76
2022-10-05T14:44:38.145Z,82
2022-10-05T14:45:43.224Z,87
2022-10-05T14:46:52.407Z,79
2022-10-05T14:47:57.097Z,80
2022-10-05T14:49:01.263Z,81
2022-10-05T14:50:13.564Z,89
2022-10-05T14:51:23.608Z,96
2022-10-05T14:52:27.960Z,87
2022-10-05T14:53:35.378Z,86
2022-10-05T14:54:39.676Z,98
2022-10-05T14:55:51.875Z,96
2022-10-05T14:57:01.164Z,105
2022-10-05T14:58:05.615Z,102
2022-10-05T14:59:14.960Z,102
2022-10-05T15:00:26.983Z,105
2022-10-05T15:01:31.448Z,97
2022-10-05T15:02:35.478Z,109
2022-10-05T15:03:47.404Z,110
2022-10-05T15:05:01.979Z,109
2022-10-05T15:06:06.218Z,112
2022-10-05T15:07:10.563Z,111
2022-10-05T15:08:22.859Z,113
2022-10-05T15:09:34.967Z,115
2022-10-05T15:10:49.586Z,125
2022-10-05T15:11:53.895Z,121
2022-10-05T15:12:58.687Z,118
2022-10-05T15:14:06.391Z,127
2022-10-05T15:15:14.162Z,124
2022-10-05T15:16:23.725Z,120
2022-10-05T15:17:27.903Z,121
2022-10-05T15:18:35.423Z,126
2022-10-05T15:19:44.703Z,118
2022-10-05T15:20:54.084Z,116
2022-10-05T15:22:04.031Z,119
2022-10-05T15:23:17.376Z,126
2022-10-05T15:24:32.178Z,118
2022-10-05T15:25:39.837Z,119
2022-10-05T15:26:46.709Z,116
2022-10-05T15:27:56.622Z,122
2022-10-05T15:29:11.244Z,123
2022-10-05T15:30:18.985Z,129
2022-10-05T15:31:23.300Z,126
2022-10-05T15:32:37.667Z,124
2022-10-05T15:33:42.118Z,122
2022-10-05T15:34:46.452Z,123
2022-10-05T15:35:59.332Z,130
2022-10-05T15:37:13.764Z,127
2022-10-05T15:38:18.137Z,125
2022-10-05T15:39:25.893Z,127
2022-10-05T15:40:37.720Z,123
2022-10-05T15:41:47.036Z,116
2022-10-05T15:42:54.008Z,125
2022-10-05T15:43:59.340Z,124
2022-10-05T15:45:09.569Z,126
2022-10-05T15:46:16.615Z,124
2022-10-05T15:47:23.522Z,121
2022-10-05T15:48:33.941Z,124
2022-10-05T15:49:48.382Z,119
2022-10-05T15:50:55.553Z,119
2022-10-05T15:52:05.128Z,118
2022-10-05T15:53:17.384Z,125
2022-10-05T15:54:22.297Z,126
2022-10-05T15:55:39.783Z,125
2022-10-05T15:56:49.120Z,117
2022-10-05T15:57:58.551Z,124
2022-10-05T15:59:15.479Z,124
2022-10-05T16:00:21.316Z,130
2022-10-05T16:01:26.029Z,125
2022-10-05T16:02:33.986Z,123
2022-10-05T16:03:38.316Z,124
2022-10-05T16:04:47.888Z,123
2022-10-05T16:05:57.200Z,123
2022-10-05T16:07:09.228Z,125
2022-10-05T16:08:18.825Z,125
2022-10-05T16:09:38.502Z,128
2022-10-05T16:10:51.508Z,131
2022-10-05T16:11:56.607Z,126
2022-10-05T16:13:09.028Z,125
2022-10-05T16:14:13.284Z,123
2022-10-05T16:15:20.248Z,131
2022-10-05T16:16:29.675Z,128
2022-10-05T16:17:34.168Z,131
2022-10-05T16:18:43.764Z,127
2022-10-05T16:19:48.825Z,132
2022-10-05T16:20:58.136Z,129
2022-10-05T16:22:12.536Z,126
2022-10-05T16:23:22.844Z,126
2022-10-05T16:24:34.988Z,135
2022-10-05T16:25:41.748Z,137
2022-10-05T16:26:51.222Z,133
2022-10-05T16:28:01.685Z,131
2022-10-05T16:29:07.396Z,134
2022-10-05T16:30:14.300Z,134
2022-10-05T16:31:18.953Z,138
2022-10-05T16:32:23.884Z,128
2022-10-05T16:33:31.270Z,124
2022-10-05T16:34:38.558Z,134
2022-10-05T16:35:50.457Z,142
2022-10-05T16:37:02.376Z,142
2022-10-05T16:38:12.464Z,138
2022-10-05T16:39:27.300Z,142
2022-10-05T16:40:41.780Z,131
2022-10-05T16:41:54.892Z,139
2022-10-05T16:43:01.813Z,135
2022-10-05T16:44:16.220Z,138
2022-10-05T16:45:28.468Z,137
2022-10-05T16:46:40.486Z,144
2022-10-05T16:47:47.708Z,134
2022-10-05T16:48:59.696Z,131
2022-10-05T16:50:26.165Z,129
2022-10-05T16:51:35.532Z,130
2022-10-05T16:52:50.081Z,125